createdAt,value
2018-08-18T00:01:11.343Z,6.10
2018-08-18T00:03:38.469Z,4.43
2018-08-18T00:06:05.561Z,2.23
2018-08-18T00:08:32.673Z,8.60
2018-08-18T00:11:01.365Z,4.83
2018-08-18T00:13:28.505Z,6.97
2018-08-18T00:15:55.601Z,3.23
2018-08-18T00:18:22.721Z,10.87
2018-08-18T00:20:49.840Z,6.00
2018-08-18T00:23:16.949Z,3.83
2018-08-18T00:25:44.060Z,4.93
2018-08-18T00:28:22.959Z,5.23
2018-08-18T00:30:50.089Z,5.07
2018-08-18T00:33:17.177Z,5.27
2018-08-18T00:35:44.283Z,3.73
2018-08-18T00:38:11.409Z,5.63
2018-08-18T00:40:38.514Z,10.47
2018-08-18T00:43:05.834Z,5.63
2018-08-18T00:45:33.275Z,8.30
2018-08-18T00:48:00.377Z,3.73
2018-08-18T00:50:35.889Z,9.27
2018-08-18T00:53:03.513Z,5.70
2018-08-18T00:55:30.605Z,4.93
2018-08-18T00:57:57.701Z,4.87
2018-08-18T01:00:24.793Z,3.43
2018-08-18T01:02:51.900Z,2.17
2018-08-18T01:05:19.525Z,6.60
2018-08-18T01:07:46.656Z,11.67
2018-08-18T01:10:13.913Z,7.50
2018-08-18T01:12:41.091Z,4.30
2018-08-18T01:15:08.210Z,7.30
2018-08-18T01:17:40.867Z,5.37
2018-08-18T01:20:07.978Z,5.03
2018-08-18T01:22:35.107Z,3.77
2018-08-18T01:25:02.510Z,3.47
2018-08-18T01:34:33.494Z,10.17
2018-08-18T01:37:07.025Z,4.97
2018-08-18T01:39:34.138Z,4.07
2018-08-18T01:42:01.239Z,2.53
2018-08-18T01:44:28.345Z,10.40
2018-08-18T01:46:55.444Z,6.77
2018-08-18T01:49:24.913Z,5.87
2018-08-18T01:51:52.040Z,5.97
2018-08-18T01:54:19.173Z,4.53
2018-08-18T01:56:47.629Z,5.20
2018-08-18T01:59:14.909Z,5.63
2018-08-18T02:01:41.998Z,3.63
2018-08-18T02:04:09.105Z,8.40
2018-08-18T02:06:36.200Z,7.07
2018-08-18T02:09:03.339Z,3.33
2018-08-18T02:11:30.465Z,5.00
2018-08-18T02:13:57.601Z,2.97
2018-08-18T02:16:26.205Z,6.77
2018-08-18T02:18:53.574Z,3.93
2018-08-18T02:21:32.090Z,4.63
2018-08-18T02:24:02.395Z,6.40
2018-08-18T02:26:29.861Z,9.40
2018-08-18T02:28:56.957Z,4.57
2018-08-18T02:31:24.255Z,8.27
2018-08-18T02:33:51.514Z,3.53
2018-08-18T02:36:18.631Z,12.17
2018-08-18T02:38:51.229Z,3.57
2018-08-18T02:41:18.351Z,4.07
2018-08-18T02:43:45.456Z,8.00
2018-08-18T02:46:21.363Z,4.30
2018-08-18T02:48:48.758Z,8.93
2018-08-18T02:51:21.052Z,4.23
2018-08-18T02:53:48.358Z,8.90
2018-08-18T02:56:15.454Z,5.30
2018-08-18T02:58:47.157Z,5.37
2018-08-18T03:01:14.702Z,4.97
2018-08-18T03:03:42.121Z,5.97
2018-08-18T03:06:11.964Z,5.93
2018-08-18T03:08:39.497Z,8.80
2018-08-18T03:11:06.633Z,5.27
2018-08-18T03:13:33.752Z,4.07
2018-08-18T03:16:02.235Z,5.40
2018-08-18T03:18:39.929Z,10.43
2018-08-18T03:21:07.022Z,7.17
2018-08-18T03:23:34.649Z,9.50
2018-08-18T03:26:02.157Z,4.00
2018-08-18T03:28:35.960Z,6.47
2018-08-18T03:31:03.949Z,9.07
2018-08-18T03:33:31.252Z,5.77
2018-08-18T03:35:58.417Z,6.97
2018-08-18T03:38:25.542Z,6.13
2018-08-18T03:40:52.645Z,10.77
2018-08-18T03:43:19.731Z,11.13
2018-08-18T03:45:47.169Z,8.30
2018-08-18T03:48:14.289Z,6.53
2018-08-18T03:50:46.713Z,9.20
2018-08-18T03:53:17.182Z,7.60
2018-08-18T03:55:44.277Z,6.13
2018-08-18T03:58:11.415Z,7.03
2018-08-18T04:00:39.086Z,11.27
2018-08-18T04:03:08.303Z,3.97
2018-08-18T04:05:35.407Z,8.50
2018-08-18T04:08:02.509Z,7.57
2018-08-18T04:10:29.637Z,6.40
2018-08-18T04:12:57.597Z,9.97
2018-08-18T04:15:24.821Z,10.33
2018-08-18T04:17:51.926Z,6.50
2018-08-18T04:20:19.026Z,7.63
2018-08-18T04:22:46.132Z,8.73
2018-08-18T04:25:13.271Z,4.80
2018-08-18T04:27:42.005Z,8.73
2018-08-18T04:30:11.222Z,12.40
2018-08-18T04:32:50.013Z,18.23
2018-08-18T04:35:18.493Z,9.93
2018-08-18T04:37:45.590Z,7.20
2018-08-18T04:40:12.713Z,7.23
2018-08-18T04:42:40.493Z,9.97
2018-08-18T04:45:07.597Z,9.60
2018-08-18T04:47:34.725Z,11.70
2018-08-18T04:50:01.827Z,8.37
2018-08-18T04:52:28.944Z,10.00
2018-08-18T04:54:56.070Z,13.73
2018-08-18T04:57:23.181Z,8.47
2018-08-18T04:59:50.298Z,9.83
2018-08-18T05:02:17.431Z,13.77
2018-08-18T05:04:44.548Z,11.83
2018-08-18T05:07:11.625Z,8.27
2018-08-18T05:09:38.713Z,9.87
2018-08-18T05:12:07.813Z,10.83
2018-08-18T05:14:34.901Z,15.90
2018-08-18T05:17:01.994Z,10.43
2018-08-18T05:19:29.083Z,17.70
2018-08-18T05:21:56.172Z,15.10
2018-08-18T05:24:24.797Z,14.30
2018-08-18T05:26:52.945Z,10.13
2018-08-18T05:29:20.105Z,8.80
2018-08-18T05:31:47.285Z,13.97
2018-08-18T05:34:14.365Z,8.93
2018-08-18T05:39:14.665Z,7.77
2018-08-18T05:41:41.741Z,14.47
2018-08-18T05:44:08.877Z,11.53
2018-08-18T05:46:35.961Z,16.87
2018-08-18T05:49:07.705Z,12.00
2018-08-18T05:51:39.697Z,10.70
2018-08-18T05:54:06.817Z,14.73
2018-08-18T05:56:33.937Z,8.53
2018-08-18T05:59:01.013Z,9.43
2018-08-18T06:01:31.433Z,10.53
2018-08-18T06:04:04.257Z,15.50
2018-08-18T06:06:31.553Z,7.83
2018-08-18T06:08:58.655Z,14.47
2018-08-18T06:11:25.729Z,6.53
2018-08-18T06:13:52.815Z,7.70
2018-08-18T06:16:19.894Z,10.37
2018-08-18T06:18:46.998Z,14.63
2018-08-18T06:21:14.281Z,10.50
2018-08-18T06:23:41.370Z,8.73
2018-08-18T06:26:08.637Z,10.63
2018-08-18T06:28:35.724Z,12.13
2018-08-18T06:31:03.142Z,13.53
2018-08-18T06:33:30.417Z,7.87
2018-08-18T06:35:57.558Z,17.10
2018-08-18T06:38:24.611Z,7.57
2018-08-18T06:40:56.921Z,16.07
2018-08-18T06:43:24.165Z,11.17
2018-08-18T06:45:51.245Z,13.20
2018-08-18T06:48:20.689Z,7.47
2018-08-18T06:50:47.774Z,12.77
2018-08-18T06:53:14.881Z,9.13
2018-08-18T06:55:41.997Z,9.73
2018-08-18T06:58:09.146Z,13.87
2018-08-18T07:00:36.226Z,10.70
2018-08-18T07:03:14.210Z,13.90
2018-08-18T07:05:41.666Z,8.80
2018-08-18T07:08:08.764Z,7.23
2018-08-18T07:10:36.769Z,7.63
2018-08-18T07:13:05.361Z,14.87
2018-08-18T07:15:33.525Z,10.17
2018-08-18T07:18:00.639Z,5.70
2018-08-18T07:20:27.749Z,18.33
2018-08-18T07:22:55.015Z,13.33
2018-08-18T07:25:22.254Z,10.67
2018-08-18T07:27:58.244Z,13.87
2018-08-18T07:30:25.874Z,10.70
2018-08-18T07:32:53.039Z,16.43
2018-08-18T07:35:20.206Z,13.13
2018-08-18T07:37:49.045Z,13.23
2018-08-18T07:40:16.147Z,17.67
2018-08-18T07:42:48.381Z,12.90
2018-08-18T07:45:15.911Z,10.00
2018-08-18T07:47:43.139Z,11.80
2018-08-18T07:50:10.263Z,14.80
2018-08-18T07:52:37.381Z,9.87
2018-08-18T07:55:04.497Z,13.13
2018-08-18T07:57:31.654Z,15.17
2018-08-18T08:00:01.638Z,10.53
2018-08-18T08:02:29.345Z,11.67
2018-08-18T08:04:57.366Z,10.15
2018-08-18T08:07:24.677Z,9.80
2018-08-18T08:09:51.776Z,11.30
2018-08-18T08:12:18.910Z,11.80
2018-08-18T08:14:45.989Z,9.97
2018-08-18T08:17:13.081Z,13.97
2018-08-18T08:19:40.381Z,9.63
2018-08-18T08:22:07.877Z,10.17
2018-08-18T08:24:34.946Z,12.10
2018-08-18T08:27:02.026Z,16.33
2018-08-18T08:29:36.026Z,7.63
2018-08-18T08:32:03.674Z,8.57
2018-08-18T08:34:35.398Z,8.93
2018-08-18T08:37:02.493Z,8.67
2018-08-18T08:39:29.581Z,7.40
2018-08-18T08:41:56.690Z,7.97
2018-08-18T08:44:25.857Z,8.07
2018-08-18T08:47:06.569Z,20.03
2018-08-18T08:49:33.662Z,13.20
2018-08-18T08:52:00.793Z,8.87
2018-08-18T08:54:31.829Z,11.93
2018-08-18T08:57:04.921Z,9.53
2018-08-18T08:59:32.690Z,12.20
2018-08-18T09:01:59.958Z,14.47
2018-08-18T09:04:27.108Z,8.50
2018-08-18T09:06:54.674Z,7.93
2018-08-18T09:09:22.134Z,7.90
2018-08-18T09:11:49.397Z,16.90
2018-08-18T09:14:16.490Z,9.60
2018-08-18T09:16:43.583Z,10.43
2018-08-18T09:19:10.673Z,11.27
2018-08-18T09:21:43.201Z,10.03
2018-08-18T09:24:10.689Z,6.83
2018-08-18T09:26:43.526Z,14.23
2018-08-18T09:29:11.478Z,3.77
2018-08-18T09:31:38.725Z,10.13
2018-08-18T09:34:05.833Z,11.33
2018-08-18T09:36:32.969Z,10.23
2018-08-18T09:39:00.094Z,7.27
2018-08-18T09:41:27.271Z,8.93
2018-08-18T09:43:54.425Z,10.83
2018-08-18T09:46:21.644Z,8.33
2018-08-18T09:48:48.792Z,6.40
2018-08-18T09:51:15.933Z,9.90
2018-08-18T09:53:43.155Z,5.73
2018-08-18T09:56:10.313Z,6.87
2018-08-18T09:58:37.459Z,10.40
2018-08-18T10:01:04.608Z,9.70
2018-08-18T10:03:35.772Z,8.93
2018-08-18T10:06:02.961Z,15.20
2018-08-18T10:08:30.090Z,4.93
2018-08-18T10:10:57.169Z,13.20
2018-08-18T10:13:24.256Z,6.13
2018-08-18T10:15:51.357Z,6.53
2018-08-18T10:18:18.453Z,8.93
2018-08-18T10:20:50.189Z,8.13
2018-08-18T10:23:17.321Z,5.77
2018-08-18T10:25:44.829Z,9.23
2018-08-18T10:28:11.930Z,7.03
2018-08-18T10:30:39.002Z,6.67
2018-08-18T10:33:06.077Z,6.83
2018-08-18T10:35:33.179Z,6.00
2018-08-18T10:38:02.577Z,9.17
2018-08-18T10:40:29.849Z,7.63
2018-08-18T10:42:56.962Z,13.80
2018-08-18T10:45:24.055Z,6.53
2018-08-18T10:47:51.141Z,7.33
2018-08-18T10:51:46.649Z,8.97
2018-08-18T10:54:13.505Z,8.37
2018-08-18T10:56:40.583Z,5.70
2018-08-18T10:59:15.791Z,8.07
2018-08-18T11:02:50.009Z,9.70
2018-08-18T11:05:17.649Z,6.83
2018-08-18T11:07:52.381Z,10.13
2018-08-18T11:10:20.185Z,5.53
2018-08-18T11:12:47.273Z,5.67
2018-08-18T11:15:14.363Z,7.70
2018-08-18T11:17:41.461Z,6.33
2018-08-18T11:20:15.265Z,9.60
2018-08-18T11:22:58.330Z,9.07
2018-08-18T11:25:29.573Z,9.23
2018-08-18T11:27:57.349Z,9.70
2018-08-18T11:30:24.717Z,8.93
2018-08-18T11:32:52.881Z,10.17
2018-08-18T11:35:19.973Z,8.30
2018-08-18T11:37:55.688Z,8.60
2018-08-18T11:40:23.781Z,4.93
2018-08-18T11:42:51.573Z,8.23
2018-08-18T11:45:19.737Z,8.83
2018-08-18T11:47:54.578Z,7.10
2018-08-18T11:50:22.109Z,12.73
2018-08-18T11:52:49.877Z,6.53
2018-08-18T11:55:17.446Z,19.43
2018-08-18T11:57:44.532Z,18.33
2018-08-18T12:02:44.365Z,34.17
2018-08-18T12:05:11.453Z,31.27
2018-08-18T12:07:38.541Z,39.87
2018-08-18T12:10:05.686Z,32.50
2018-08-18T12:12:32.807Z,25.93
2018-08-18T12:14:59.893Z,18.80
2018-08-18T12:17:27.009Z,23.00
2018-08-18T12:19:58.962Z,21.33
2018-08-18T12:22:26.057Z,19.20
2018-08-18T12:25:00.723Z,18.43
2018-08-18T12:27:28.601Z,19.47
2018-08-18T12:29:56.092Z,15.90
2018-08-18T12:32:27.086Z,10.67
2018-08-18T12:34:55.578Z,15.17
2018-08-18T12:37:26.142Z,10.40
2018-08-18T12:39:53.695Z,13.90
2018-08-18T12:42:28.352Z,13.57
2018-08-18T12:44:56.201Z,10.63
2018-08-18T12:47:23.436Z,10.07
2018-08-18T12:49:51.307Z,11.47
2018-08-18T12:52:18.418Z,11.60
2018-08-18T12:54:45.501Z,9.83
2018-08-18T12:57:12.919Z,9.13
2018-08-18T12:59:40.001Z,13.23
2018-08-18T13:02:07.418Z,12.10
2018-08-18T13:04:34.497Z,8.47
2018-08-18T13:07:01.613Z,11.63
2018-08-18T13:09:28.714Z,12.57
2018-08-18T13:11:57.170Z,9.00
2018-08-18T13:14:25.843Z,9.23
2018-08-18T13:16:53.093Z,11.73
2018-08-18T13:19:22.254Z,5.67
2018-08-18T13:21:49.353Z,9.17
2018-08-18T13:24:16.593Z,8.00
2018-08-18T13:26:43.605Z,8.10
2018-08-18T13:29:10.733Z,13.33
2018-08-18T13:31:39.909Z,9.80
2018-08-18T13:34:08.081Z,10.73
2018-08-18T13:36:36.786Z,4.90
2018-08-18T13:39:06.621Z,8.00
2018-08-18T13:41:33.697Z,8.57
2018-08-18T13:44:00.803Z,6.43
2018-08-18T13:46:39.561Z,7.47
2018-08-18T13:49:06.910Z,8.60
2018-08-18T13:51:33.997Z,7.43
2018-08-18T13:54:02.245Z,8.13
2018-08-18T13:56:29.349Z,12.77
2018-08-18T13:58:56.633Z,8.90
2018-08-18T14:01:32.766Z,10.17
2018-08-18T14:03:59.902Z,7.33
2018-08-18T14:06:27.013Z,10.00
2018-08-18T14:08:59.932Z,8.33
2018-08-18T14:11:27.581Z,6.80
2018-08-18T14:13:54.685Z,7.97
2018-08-18T14:16:21.762Z,11.17
2018-08-18T14:18:48.841Z,6.10
2018-08-18T14:21:19.993Z,7.20
2018-08-18T14:23:47.112Z,10.27
2018-08-18T14:26:14.219Z,11.50
2018-08-18T14:28:41.326Z,9.40
2018-08-18T14:31:08.433Z,5.63
2018-08-18T14:33:35.874Z,7.33
2018-08-18T14:36:08.768Z,8.17
2018-08-18T14:38:35.885Z,7.20
2018-08-18T14:41:03.105Z,7.77
2018-08-18T14:43:36.745Z,6.37
2018-08-18T14:46:05.065Z,8.23
2018-08-18T14:48:32.179Z,9.17
2018-08-18T14:50:59.273Z,7.00
2018-08-18T14:53:26.389Z,9.63
2018-08-18T14:55:53.952Z,7.17
2018-08-18T14:58:27.284Z,9.77
2018-08-18T15:01:01.009Z,10.23
2018-08-18T15:03:28.138Z,7.57
2018-08-18T15:05:55.226Z,10.17
2018-08-18T15:08:22.331Z,12.77
2018-08-18T15:10:49.446Z,10.50
2018-08-18T15:13:16.539Z,9.83
2018-08-18T15:15:43.666Z,12.03
2018-08-18T15:18:12.375Z,6.43
2018-08-18T15:20:40.133Z,10.67
2018-08-18T15:23:08.122Z,11.70
2018-08-18T15:25:36.106Z,10.13
2018-08-18T15:28:04.379Z,9.17
2018-08-18T15:30:32.041Z,14.30
2018-08-18T15:32:59.293Z,6.77
2018-08-18T15:35:26.645Z,7.37
2018-08-18T15:37:53.966Z,7.27
2018-08-18T15:40:21.280Z,11.17
2018-08-18T15:42:48.401Z,8.33
2018-08-18T15:45:15.502Z,6.80
2018-08-18T15:47:42.587Z,9.17
2018-08-18T15:50:09.677Z,16.53
2018-08-18T15:52:36.793Z,20.97
2018-08-18T15:55:04.611Z,24.10
2018-08-18T15:57:32.289Z,22.00
2018-08-18T15:59:59.406Z,32.17
2018-08-18T16:02:26.889Z,36.60
2018-08-18T16:04:54.169Z,22.07
2018-08-18T16:07:21.321Z,25.10
2018-08-18T16:09:48.460Z,18.23
2018-08-18T16:12:15.642Z,15.00
2018-08-18T16:14:42.785Z,17.43
2018-08-18T16:17:09.943Z,16.90
2018-08-18T16:19:37.091Z,10.37
2018-08-18T16:22:05.440Z,12.43
2018-08-18T16:24:39.715Z,10.03
2018-08-18T16:27:07.275Z,10.83
2018-08-18T16:29:40.359Z,10.93
2018-08-18T16:32:20.405Z,6.47
2018-08-18T16:34:50.905Z,8.60
2018-08-18T16:37:18.032Z,9.63
2018-08-18T16:39:45.150Z,6.43
2018-08-18T16:42:13.324Z,11.70
2018-08-18T16:44:41.090Z,7.73
2018-08-18T16:47:08.250Z,15.50
2018-08-18T16:49:35.385Z,7.47
2018-08-18T16:52:02.513Z,27.83
2018-08-18T16:54:30.242Z,87.93
2018-08-18T16:56:57.389Z,76.33
2018-08-18T16:59:24.512Z,59.77
2018-08-18T17:01:51.617Z,43.83
2018-08-18T17:04:23.305Z,54.30
2018-08-18T17:06:50.409Z,37.37
2018-08-18T17:09:29.081Z,28.80
2018-08-18T17:12:10.978Z,24.70
2018-08-18T17:14:38.210Z,23.43
2018-08-18T17:17:05.297Z,18.13
2018-08-18T17:19:32.390Z,20.43
2018-08-18T17:21:59.497Z,11.20
2018-08-18T17:24:26.584Z,12.07
2018-08-18T17:26:53.669Z,9.70
2018-08-18T17:29:20.767Z,9.83
2018-08-18T17:31:47.849Z,14.23
2018-08-18T17:34:14.943Z,11.90
2018-08-18T17:36:42.026Z,13.47
2018-08-18T17:39:09.152Z,7.57
2018-08-18T17:41:36.243Z,6.93
2018-08-18T17:44:03.339Z,8.43
2018-08-18T17:46:30.813Z,11.27
2018-08-18T17:48:57.925Z,12.30
2018-08-18T17:51:25.021Z,8.57
2018-08-18T17:53:53.693Z,10.67
2018-08-18T17:56:20.782Z,11.37
2018-08-18T17:58:47.926Z,7.70
2018-08-18T18:01:14.983Z,8.57
2018-08-18T18:03:42.098Z,10.20
2018-08-18T18:06:09.249Z,10.57
2018-08-18T18:08:36.354Z,6.27
2018-08-18T18:11:07.485Z,8.00
2018-08-18T18:13:34.583Z,9.53
2018-08-18T18:16:02.424Z,10.80
2018-08-18T18:18:46.578Z,8.40
2018-08-18T18:21:13.707Z,7.57
2018-08-18T18:23:41.845Z,4.73
2018-08-18T18:26:08.946Z,6.93
2018-08-18T18:28:36.042Z,8.07
2018-08-18T18:31:03.177Z,5.93
2018-08-18T18:33:30.277Z,10.47
2018-08-18T18:35:57.528Z,7.67
2018-08-18T18:38:24.637Z,7.20
2018-08-18T18:40:51.734Z,10.27
2018-08-18T18:43:18.843Z,5.63
2018-08-18T18:45:46.004Z,7.20
2018-08-18T18:48:14.217Z,10.67
2018-08-18T18:50:43.661Z,7.00
2018-08-18T18:53:10.766Z,8.93
2018-08-18T18:55:52.617Z,11.87
2018-08-18T18:58:19.747Z,8.97
2018-08-18T19:00:50.219Z,11.20
2018-08-18T19:03:17.316Z,7.10
2018-08-18T19:05:46.061Z,7.27
2018-08-18T19:08:14.705Z,6.97
2018-08-18T19:10:41.809Z,10.83
2018-08-18T19:13:09.222Z,7.57
2018-08-18T19:15:36.316Z,9.67
2018-08-18T19:18:03.818Z,8.93
2018-08-18T19:20:31.098Z,15.43
2018-08-18T19:23:07.954Z,4.87
2018-08-18T19:25:36.153Z,7.63
2018-08-18T19:28:03.266Z,7.33
2018-08-18T19:30:31.065Z,10.67
2018-08-18T19:32:58.191Z,8.57
2018-08-18T19:35:28.386Z,6.10
2018-08-18T19:37:55.489Z,13.13
2018-08-18T19:40:22.758Z,10.20
2018-08-18T19:42:49.857Z,8.63
2018-08-18T19:45:16.982Z,12.97
2018-08-18T19:47:45.438Z,16.33
2018-08-18T19:50:12.608Z,7.27
2018-08-18T19:52:41.313Z,11.73
2018-08-18T19:55:09.829Z,11.77
2018-08-18T19:57:37.761Z,9.07
2018-08-18T20:00:16.566Z,8.87
2018-08-18T20:02:53.675Z,12.80
2018-08-18T20:05:21.749Z,8.00
2018-08-18T20:07:49.103Z,12.33
2018-08-18T20:10:20.298Z,11.47
2018-08-18T20:12:47.397Z,9.70
2018-08-18T20:15:15.181Z,9.77
2018-08-18T20:17:42.734Z,8.63
2018-08-18T20:20:12.130Z,11.23
2018-08-18T20:22:39.405Z,13.73
2018-08-18T20:25:06.513Z,13.67
2018-08-18T20:27:33.721Z,15.93
2018-08-18T20:30:00.805Z,9.70
2018-08-18T20:32:27.895Z,8.87
2018-08-18T20:34:59.046Z,10.27
2018-08-18T20:37:26.141Z,6.57
2018-08-18T20:39:53.414Z,16.00
2018-08-18T20:42:25.389Z,14.70
2018-08-18T20:44:53.053Z,8.13
2018-08-18T20:47:20.177Z,13.23
2018-08-18T20:49:47.276Z,8.83
2018-08-18T20:52:14.353Z,6.13
2018-08-18T20:54:41.446Z,8.07
2018-08-18T20:57:08.543Z,8.83
2018-08-18T20:59:35.645Z,6.50
2018-08-18T21:02:02.737Z,11.37
2018-08-18T21:04:29.853Z,13.03
2018-08-18T21:06:56.960Z,7.83
2018-08-18T21:09:26.866Z,8.53
2018-08-18T21:11:53.978Z,8.57
2018-08-18T21:14:21.161Z,13.90
2018-08-18T21:16:48.258Z,8.30
2018-08-18T21:19:19.901Z,8.73
2018-08-18T21:21:47.018Z,13.17
2018-08-18T21:24:14.117Z,10.63
2018-08-18T21:26:41.223Z,8.63
2018-08-18T21:29:08.341Z,5.03
2018-08-18T21:31:36.777Z,7.90
2018-08-18T21:34:05.125Z,7.67
2018-08-18T21:36:32.485Z,10.63
2018-08-18T21:39:01.226Z,6.13
2018-08-18T21:41:28.658Z,6.67
2018-08-18T21:43:55.775Z,7.37
2018-08-18T21:46:22.869Z,7.53
2018-08-18T21:48:51.553Z,8.63
2018-08-18T21:51:21.578Z,5.47
2018-08-18T21:53:48.674Z,8.13
2018-08-18T21:56:15.777Z,11.40
2018-08-18T21:58:42.915Z,7.10
2018-08-18T22:01:17.670Z,9.07
2018-08-18T22:03:45.638Z,9.00
2018-08-18T22:06:13.001Z,8.00
2018-08-18T22:08:40.105Z,9.20
2018-08-18T22:11:07.911Z,6.73
2018-08-18T22:13:40.077Z,8.97
2018-08-18T22:16:07.590Z,5.73
2018-08-18T22:18:34.694Z,10.00
2018-08-18T22:21:02.126Z,6.33
2018-08-18T22:23:29.227Z,5.23
2018-08-18T22:25:56.627Z,7.30
2018-08-18T22:28:23.733Z,9.60
2018-08-18T22:30:53.078Z,7.47
2018-08-18T22:33:20.993Z,12.20
2018-08-18T22:35:53.583Z,10.27
2018-08-18T22:38:20.701Z,10.93
2018-08-18T22:40:47.808Z,11.87
2018-08-18T22:43:15.457Z,15.80
2018-08-18T22:45:42.553Z,11.53
2018-08-18T22:48:09.652Z,11.07
2018-08-18T22:50:36.741Z,13.07
2018-08-18T22:53:03.846Z,8.07
2018-08-18T22:55:30.944Z,10.43
2018-08-18T22:58:01.468Z,11.63
2018-08-18T23:00:29.017Z,9.07
2018-08-18T23:02:56.136Z,6.20
2018-08-18T23:05:23.247Z,8.27
2018-08-18T23:07:53.386Z,8.27
2018-08-18T23:10:21.270Z,14.70
2018-08-18T23:12:48.381Z,12.23
2018-08-18T23:15:15.487Z,11.57
2018-08-18T23:17:42.581Z,7.57
2018-08-18T23:20:09.677Z,6.73
2018-08-18T23:22:55.992Z,7.60
2018-08-18T23:25:24.737Z,10.67
2018-08-18T23:27:52.112Z,12.47
2018-08-18T23:30:23.011Z,9.77
2018-08-18T23:32:50.239Z,9.60
2018-08-18T23:35:17.645Z,11.50
2018-08-18T23:37:44.752Z,8.17
2018-08-18T23:40:11.850Z,14.33
2018-08-18T23:42:38.957Z,11.07
2018-08-18T23:45:06.078Z,12.27
2018-08-18T23:47:33.192Z,10.70
2018-08-18T23:50:04.631Z,9.13
2018-08-18T23:52:42.545Z,9.83
2018-08-18T23:55:09.663Z,10.90
2018-08-18T23:57:36.771Z,11.43
